LFMD/CEQ METAR and TAF weather

Enter ICAO airport designator
Station Type Date Time Source
LFMD METAR 2021/08/02 01:30 UTC NOAA

LFMD 020130Z AUTO VRB03KT CAVOK 19/11 Q1009


Station Type Date Time Source
LFMD Decoded METAR 2021/08/02 01:30 UTC NOAA

Cannes, France (LFMD) 43-33N 006-57E 9M
Aug 01, 2021 - 09:30 PM EDT / 2021.08.02 0130 UTC
Wind: Variable at 3 MPH (3 KT):0
Visibility: greater than 7 mile(s):0
Temperature: 66 F (19 C)
Dew Point: 51 F (11 C)
Relative Humidity: 59%
Pressure (altimeter): 29.80 in. Hg (1009 hPa)
ob: LFMD 020130Z AUTO VRB03KT CAVOK 19/11 Q1009
cycle: 1

Station Type Date Time Source
LFMD TAF 2021/08/01 21:07 UTC NOAA

TAF LFMD 012100Z 0121/0215 CNL

Example: see airport list